Time;durP1;ratioP1;P1;durP2;ratioP2;P2;SDS_P1;SDS_P2;PMS_P1;PMS_P2;Temp;Humidity;BMP_temperature;BMP_pressure;BME280_temperature;BME280_humidity;BME280_pressure;Samples;Min_cycle;Max_cycle;Signal;HPM_P1;HPM_P2
2021/07/12 00:00:34;;;;;;;6.28;5.78;;;;;;;18.37;92.84;100855.25;5053490;28;20098;-86
2021/07/12 00:03:02;;;;;;;7.22;6.63;;;;;;;18.35;93.04;100852.69;5064758;28;20099;-86
2021/07/12 00:05:31;;;;;;;8.05;7.43;;;;;;;18.34;93.34;100837.69;5049218;28;20558;-84
2021/07/12 00:07:58;;;;;;;7.88;7.28;;;;;;;18.34;93.04;100842.13;5069437;28;20048;-84
2021/07/12 00:10:29;;;;;;;7.22;6.57;;;;;;;18.30;93.10;100838.75;5052584;28;20486;-84
2021/07/12 00:12:57;;;;;;;6.38;5.88;;;;;;;18.28;93.10;100842.38;5057406;28;20048;-86
2021/07/12 00:15:26;;;;;;;6.55;6.05;;;;;;;18.26;93.06;100839.75;5055563;28;20040;-83
2021/07/12 00:17:53;;;;;;;6.65;6.05;;;;;;;18.22;93.31;100847.91;5049262;28;20044;-86
2021/07/12 00:20:21;;;;;;;6.70;6.20;;;;;;;18.18;93.09;100849.78;5051780;28;20128;-86
2021/07/12 00:22:49;;;;;;;5.07;4.78;;;;;;;18.11;93.43;100849.16;5067879;28;20063;-86
2021/07/12 00:25:18;;;;;;;6.70;6.15;;;;;;;18.08;93.70;100848.41;5070277;28;20493;-86
2021/07/12 00:27:45;;;;;;;6.95;6.45;;;;;;;18.05;93.45;100843.22;5055534;28;20568;-86
2021/07/12 00:30:16;;;;;;;7.57;6.88;;;;;;;18.00;94.03;100836.31;5059570;28;20044;-85
2021/07/12 00:32:43;;;;;;;8.82;7.28;;;;;;;17.99;93.95;100831.06;5057182;28;20856;-85
2021/07/12 00:35:12;;;;;;;7.50;6.82;;;;;;;17.94;93.94;100828.59;5060455;28;20040;-85
2021/07/12 00:37:39;;;;;;;7.93;7.13;;;;;;;17.88;94.44;100828.78;5058911;28;20040;-84
2021/07/12 00:40:11;;;;;;;9.07;7.72;;;;;;;17.83;94.63;100822.78;5076460;28;20105;-85
2021/07/12 00:42:39;;;;;;;6.80;6.20;;;;;;;17.78;94.99;100820.31;5076683;28;20048;-84
2021/07/12 00:45:13;;;;;;;9.10;7.72;;;;;;;17.78;95.22;100819.44;5054461;28;20052;-85
2021/07/12 00:47:40;;;;;;;7.28;6.63;;;;;;;17.73;95.31;100809.03;5077312;28;20044;-84
2021/07/12 00:50:09;;;;;;;7.43;6.82;;;;;;;17.71;95.42;100813.50;5056161;28;20045;-85
2021/07/12 00:52:37;;;;;;;7.10;6.50;;;;;;;17.71;95.64;100810.00;5061078;28;20054;-85
2021/07/12 00:55:17;;;;;;;7.32;6.72;;;;;;;17.68;95.49;100803.91;5062604;28;20055;-85
2021/07/12 00:57:43;;;;;;;8.52;7.65;;;;;;;17.64;95.59;100802.28;5052936;28;20131;-85
2021/07/12 01:00:12;;;;;;;6.07;5.68;;;;;;;17.60;95.70;100789.19;5078138;28;20052;-85
2021/07/12 01:02:39;;;;;;;8.00;7.20;;;;;;;17.59;96.12;100792.78;5072769;28;20401;-85
2021/07/12 01:05:10;;;;;;;7.30;6.55;;;;;;;17.57;96.38;100797.25;5060178;28;20055;-84
2021/07/12 01:07:37;;;;;;;7.15;6.55;;;;;;;17.54;96.19;100798.22;5056807;28;20048;-85
2021/07/12 01:10:05;;;;;;;8.45;7.57;;;;;;;17.52;96.31;100800.06;5072475;28;20123;-85
2021/07/12 01:12:46;;;;;;;6.85;6.35;;;;;;;17.47;96.42;100794.94;5060125;28;20044;-85
2021/07/12 01:15:18;;;;;;;7.93;7.30;;;;;;;17.47;96.56;100800.25;5050508;28;20049;-85
2021/07/12 01:18:20;;;;;;;8.55;7.85;;;;;;;17.45;97.18;100801.22;5076427;28;20127;-85
2021/07/12 01:22:02;;;;;;;8.75;8.05;;;;;;;17.39;97.60;100791.72;5056151;28;20584;-85
2021/07/12 01:25:20;;;;;;;10.55;9.55;;;;;;;17.33;98.29;100790.13;5091613;28;20062;-85
2021/07/12 01:28:37;;;;;;;9.98;8.98;;;;;;;17.29;98.63;100783.22;5058646;28;20050;-85
2021/07/12 01:31:55;;;;;;;9.80;8.90;;;;;;;17.26;99.66;100782.47;5090545;28;20409;-85
2021/07/12 01:34:41;;;;;;;10.57;9.48;;;;;;;17.22;99.04;100776.41;5058217;28;20048;-85
2021/07/12 01:37:21;;;;;;;12.43;10.48;;;;;;;17.17;98.91;100783.66;5069346;28;20048;-85
2021/07/12 01:39:59;;;;;;;9.43;8.52;;;;;;;17.15;99.55;100783.69;5095249;28;20060;-85
2021/07/12 01:42:39;;;;;;;9.13;8.43;;;;;;;17.10;99.77;100772.41;5059821;28;20202;-85
2021/07/12 01:45:15;;;;;;;9.48;8.57;;;;;;;17.08;100.00;100773.38;5074106;28;20064;-85
2021/07/12 01:48:20;;;;;;;8.70;7.93;;;;;;;17.03;100.00;100773.53;5086533;28;20353;-84
2021/07/12 01:50:58;;;;;;;8.52;7.75;;;;;;;17.01;100.00;100773.59;5056625;28;20533;-84
2021/07/12 01:54:30;;;;;;;10.20;9.15;;;;;;;16.99;100.00;100771.94;5077222;28;20041;-85
2021/07/12 01:57:06;;;;;;;8.55;7.85;;;;;;;16.93;100.00;100775.63;5061560;28;20059;-84
2021/07/12 01:59:53;;;;;;;8.32;7.57;;;;;;;16.87;100.00;100773.16;5088213;28;20040;-83
2021/07/12 02:02:20;;;;;;;7.45;6.78;;;;;;;16.83;100.00;100780.34;5062228;28;20071;-85
2021/07/12 02:04:48;;;;;;;8.48;7.68;;;;;;;16.80;100.00;100771.63;5058780;28;20055;-86
2021/07/12 02:07:16;;;;;;;6.65;5.85;;;;;;;16.77;100.00;100764.66;5073690;28;20056;-85
2021/07/12 02:09:45;;;;;;;6.72;6.20;;;;;;;16.75;100.00;100765.63;5057356;28;20806;-85
2021/07/12 02:12:12;;;;;;;9.20;7.45;;;;;;;16.73;100.00;100762.19;5057125;28;20050;-84
2021/07/12 02:14:40;;;;;;;7.43;6.72;;;;;;;16.72;100.00;100761.31;5052973;28;20111;-84
2021/07/12 02:17:08;;;;;;;7.97;7.25;;;;;;;16.69;100.00;100756.97;5084788;28;20094;-84
2021/07/12 02:19:37;;;;;;;7.15;6.57;;;;;;;16.65;100.00;100750.06;5057830;28;20073;-85
2021/07/12 02:22:05;;;;;;;7.85;7.15;;;;;;;16.63;100.00;100740.47;5063513;28;20064;-85
2021/07/12 02:24:35;;;;;;;7.70;6.93;;;;;;;16.63;100.00;100743.09;5055781;28;20142;-84
2021/07/12 02:27:01;;;;;;;6.90;6.30;;;;;;;16.65;100.00;100738.66;5071716;28;20410;-84
2021/07/12 02:29:31;;;;;;;7.05;6.50;;;;;;;16.66;100.00;100732.44;5090932;28;20048;-85
2021/07/12 02:31:59;;;;;;;6.63;6.13;;;;;;;16.65;100.00;100726.28;5074210;28;20163;-85
2021/07/12 02:34:27;;;;;;;7.22;6.47;;;;;;;16.62;100.00;100725.53;5073340;28;20062;-85
2021/07/12 02:36:54;;;;;;;7.10;6.43;;;;;;;16.59;100.00;100726.47;5056678;28;20040;-85
2021/07/12 02:39:22;;;;;;;6.65;6.15;;;;;;;16.60;100.00;100730.00;5061028;28;20044;-85
2021/07/12 02:41:49;;;;;;;7.05;6.35;;;;;;;16.58;100.00;100726.53;5071500;28;20126;-85
2021/07/12 02:44:17;;;;;;;6.68;6.07;;;;;;;16.58;100.00;100723.91;5070988;28;20056;-85
2021/07/12 02:46:45;;;;;;;6.28;5.72;;;;;;;16.57;100.00;100723.03;5069206;28;20037;-85
2021/07/12 02:49:12;;;;;;;7.85;6.72;;;;;;;16.58;100.00;100710.69;5052412;28;20044;-84
2021/07/12 02:51:49;;;;;;;7.75;7.03;;;;;;;16.58;100.00;100708.88;5071017;28;20039;-85
2021/07/12 02:54:22;;;;;;;6.75;6.15;;;;;;;16.57;100.00;100712.47;5071526;28;20044;-85
2021/07/12 02:56:49;;;;;;;7.68;6.93;;;;;;;16.56;100.00;100702.81;5099187;27;20049;-85
2021/07/12 02:59:17;;;;;;;6.32;5.82;;;;;;;16.53;100.00;100710.81;5068410;28;20044;-85
2021/07/12 03:01:43;;;;;;;5.95;5.53;;;;;;;16.49;100.00;100702.16;5046331;28;20433;-85
2021/07/12 03:04:10;;;;;;;7.93;7.22;;;;;;;16.46;100.00;100707.53;5095561;28;20051;-84
2021/07/12 03:06:36;;;;;;;7.35;6.72;;;;;;;16.46;100.00;100704.03;5069416;28;20044;-85
2021/07/12 03:09:13;;;;;;;6.40;5.78;;;;;;;16.45;100.00;100703.16;5067141;28;20052;-85
2021/07/12 03:11:55;;;;;;;4.97;4.57;;;;;;;16.44;100.00;100705.84;5068824;28;20067;-85
2021/07/12 03:14:42;;;;;;;5.97;5.47;;;;;;;16.41;100.00;100705.94;5063117;28;20048;-86
2021/07/12 03:17:09;;;;;;;6.13;5.60;;;;;;;16.40;100.00;100705.09;5064676;28;20048;-85
2021/07/12 03:19:39;;;;;;;7.05;6.45;;;;;;;16.35;100.00;100713.16;5068469;28;20773;-85
2021/07/12 03:22:11;;;;;;;7.18;6.47;;;;;;;16.32;100.00;100712.38;5051556;28;20147;-85
2021/07/12 03:24:41;;;;;;;7.60;6.88;;;;;;;16.29;100.00;100707.22;5065894;28;20049;-85
2021/07/12 03:27:12;;;;;;;8.40;7.25;;;;;;;16.26;100.00;100708.19;5066360;28;20048;-85
2021/07/12 03:29:40;;;;;;;7.25;6.72;;;;;;;16.24;100.00;100709.13;5051353;28;20040;-84
2021/07/12 03:32:09;;;;;;;9.20;8.30;;;;;;;16.21;100.00;100705.66;5081606;28;20032;-85
2021/07/12 03:34:37;;;;;;;8.05;7.35;;;;;;;16.18;100.00;100700.50;5049542;28;20136;-85
2021/07/12 03:37:05;;;;;;;7.50;6.80;;;;;;;16.17;100.00;100695.25;5068575;28;20037;-85
2021/07/12 03:39:32;;;;;;;8.52;7.82;;;;;;;16.15;100.00;100692.69;5050884;28;20090;-83
2021/07/12 03:41:59;;;;;;;7.72;7.03;;;;;;;16.13;100.00;100696.28;5066779;28;20055;-85
2021/07/12 03:44:27;;;;;;;8.68;7.30;;;;;;;16.10;100.00;100694.59;5065746;28;20048;-84
2021/07/12 03:46:53;;;;;;;7.50;6.90;;;;;;;16.10;100.00;100701.63;5067115;28;20293;-84
2021/07/12 03:49:20;;;;;;;6.65;6.03;;;;;;;16.06;100.00;100695.59;5051515;28;20478;-86
2021/07/12 03:51:51;;;;;;;6.63;6.13;;;;;;;16.04;100.00;100697.41;5081476;28;20045;-86
2021/07/12 03:54:19;;;;;;;6.30;5.80;;;;;;;16.04;100.00;100695.63;5050270;28;20141;-85
2021/07/12 03:56:46;;;;;;;6.32;5.80;;;;;;;16.04;100.00;100693.00;5060505;28;20080;-84
2021/07/12 03:59:13;;;;;;;6.72;6.13;;;;;;;16.07;100.00;100699.09;5046236;28;20048;-86
2021/07/12 04:01:39;;;;;;;5.90;5.40;;;;;;;16.10;100.00;100696.34;5029024;28;20040;-84
2021/07/12 04:04:06;;;;;;;6.90;6.30;;;;;;;16.11;100.00;100688.38;5030911;28;20142;-84
2021/07/12 04:06:32;;;;;;;6.10;5.43;;;;;;;16.14;100.00;100690.06;5032869;28;20052;-85
2021/07/12 04:09:00;;;;;;;5.60;4.88;;;;;;;16.15;100.00;100678.59;5047125;28;21431;-84
2021/07/12 04:11:33;;;;;;;5.63;5.22;;;;;;;16.18;100.00;100689.94;5062065;28;20500;-84
2021/07/12 04:14:01;;;;;;;6.55;5.95;;;;;;;16.23;100.00;100691.56;5045031;28;20499;-86
2021/07/12 04:16:34;;;;;;;5.60;5.10;;;;;;;16.30;100.00;100701.88;5044714;28;20067;-85
2021/07/12 04:19:03;;;;;;;6.15;5.55;;;;;;;16.44;100.00;100705.84;5035199;28;20307;-85
2021/07/12 04:21:30;;;;;;;5.68;5.18;;;;;;;16.53;100.00;100694.97;5033210;28;20125;-85
2021/07/12 04:23:56;;;;;;;6.05;5.25;;;;;;;16.58;100.00;100700.97;5034209;28;20556;-84
2021/07/12 04:26:23;;;;;;;5.93;4.75;;;;;;;16.63;100.00;100704.31;5047557;28;20426;-84
2021/07/12 04:28:51;;;;;;;5.80;5.20;;;;;;;16.70;100.00;100700.56;5045777;28;20508;-84
2021/07/12 04:31:17;;;;;;;7.05;6.35;;;;;;;16.78;99.67;100700.31;5030860;28;20100;-85
2021/07/12 04:33:47;;;;;;;5.68;5.18;;;;;;;16.90;99.16;100701.69;5051539;28;20045;-86
2021/07/12 04:36:14;;;;;;;3.88;3.58;;;;;;;17.01;98.83;100711.91;5052665;28;20048;-85
2021/07/12 04:38:40;;;;;;;5.10;4.65;;;;;;;17.12;98.41;100714.19;5047667;28;20048;-85
2021/07/12 04:41:07;;;;;;;7.03;4.45;;;;;;;17.17;97.48;100713.09;5033347;28;20041;-85
2021/07/12 04:43:34;;;;;;;6.97;5.10;;;;;;;17.19;97.42;100699.81;5032278;28;20052;-85
2021/07/12 04:46:03;;;;;;;4.72;4.32;;;;;;;17.20;97.12;100707.69;5029945;28;20080;-86
2021/07/12 04:48:30;;;;;;;9.35;5.07;;;;;;;17.25;96.63;100702.25;5048119;28;20037;-86
2021/07/12 04:50:57;;;;;;;4.57;4.28;;;;;;;17.29;96.88;100701.22;5047964;28;20056;-84
2021/07/12 04:53:23;;;;;;;6.57;4.82;;;;;;;17.37;96.63;100700.94;5044461;28;20045;-87
2021/07/12 04:55:57;;;;;;;9.38;8.60;;;;;;;17.45;96.23;100701.50;5045748;28;20068;-86
2021/07/12 04:58:36;;;;;;;6.75;6.20;;;;;;;17.55;95.84;100698.50;5074884;28;20049;-84
2021/07/12 05:01:05;;;;;;;4.57;4.22;;;;;;;17.65;95.35;100692.84;5041775;28;20423;-84
2021/07/12 05:03:33;;;;;;;4.70;4.38;;;;;;;17.75;95.00;100703.06;5048074;28;20049;-85
2021/07/12 05:06:02;;;;;;;6.78;4.65;;;;;;;17.80;94.71;100704.59;5050985;28;20056;-86
2021/07/12 05:08:45;;;;;;;4.45;4.15;;;;;;;17.84;94.34;100700.06;5033000;28;20041;-86
2021/07/12 05:11:17;;;;;;;4.13;3.83;;;;;;;17.88;94.11;100706.13;5032108;28;20045;-85
2021/07/12 05:13:44;;;;;;;4.65;4.25;;;;;;;17.88;93.86;100700.81;5068584;28;20095;-85
2021/07/12 05:16:11;;;;;;;5.72;4.38;;;;;;;17.82;93.85;100701.91;5052304;28;20041;-83
2021/07/12 05:18:39;;;;;;;6.43;3.85;;;;;;;17.78;94.14;100702.94;5047685;28;20099;-86
2021/07/12 05:21:07;;;;;;;4.05;3.75;;;;;;;17.74;94.19;100702.19;5052055;28;20133;-85
2021/07/12 05:23:33;;;;;;;4.35;3.72;;;;;;;17.73;94.13;100700.47;5035379;28;20388;-85
2021/07/12 05:26:00;;;;;;;4.45;3.97;;;;;;;17.74;94.15;100699.53;5050081;28;20041;-85
2021/07/12 05:28:26;;;;;;;4.35;3.83;;;;;;;17.78;94.19;100700.28;5068290;28;20049;-86
2021/07/12 05:30:53;;;;;;;4.43;4.00;;;;;;;17.82;94.11;100701.91;5049248;28;20563;-86
2021/07/12 05:33:20;;;;;;;4.22;3.92;;;;;;;17.86;93.87;100701.72;5030751;28;20084;-85
2021/07/12 05:35:46;;;;;;;4.53;4.20;;;;;;;17.93;93.71;100702.38;5040610;28;20071;-86
2021/07/12 05:38:13;;;;;;;4.88;4.13;;;;;;;18.00;93.59;100703.88;5030168;28;20136;-85
2021/07/12 05:40:39;;;;;;;5.63;3.50;;;;;;;18.09;93.27;100689.41;5030995;28;20060;-84
2021/07/12 05:43:08;;;;;;;3.75;3.47;;;;;;;18.18;92.79;100696.13;5031161;28;20037;-83
2021/07/12 05:45:35;;;;;;;3.13;2.92;;;;;;;18.26;92.54;100698.47;5031386;28;20124;-84
2021/07/12 05:48:02;;;;;;;3.92;3.55;;;;;;;18.32;92.31;100700.88;5049017;28;20102;-84
2021/07/12 05:50:29;;;;;;;4.47;3.22;;;;;;;18.37;91.85;100700.66;5031358;28;20074;-83
2021/07/12 05:52:55;;;;;;;4.70;4.30;;;;;;;18.45;91.64;100702.09;5046781;28;20068;-84
2021/07/12 05:55:22;;;;;;;7.95;6.03;;;;;;;18.50;91.41;100692.16;5048735;28;20036;-84
2021/07/12 05:57:49;;;;;;;5.55;4.35;;;;;;;18.55;91.36;100693.75;5049310;28;20065;-84
2021/07/12 06:00:16;;;;;;;3.30;3.10;;;;;;;18.54;90.95;100690.25;5048570;28;20044;-84
2021/07/12 06:02:45;;;;;;;4.38;3.70;;;;;;;18.55;91.38;100680.50;5044430;28;20136;-84
2021/07/12 06:05:12;;;;;;;4.32;4.03;;;;;;;18.57;91.55;100684.81;5030671;28;20117;-85
2021/07/12 06:07:39;;;;;;;4.68;3.58;;;;;;;18.64;91.06;100690.72;5031785;28;20419;-84
2021/07/12 06:10:07;;;;;;;3.97;3.55;;;;;;;18.72;91.08;100678.00;5048986;28;20496;-84
2021/07/12 06:12:34;;;;;;;4.53;4.10;;;;;;;18.83;90.69;100675.75;5050638;28;20041;-84
2021/07/12 06:15:01;;;;;;;3.53;3.33;;;;;;;19.02;90.19;100672.34;5047677;28;20049;-85
2021/07/12 06:17:28;;;;;;;3.42;3.17;;;;;;;19.23;89.39;100669.63;5032510;28;20142;-86
2021/07/12 06:19:55;;;;;;;2.90;2.67;;;;;;;19.39;88.57;100670.69;5031622;28;20052;-85
2021/07/12 06:22:22;;;;;;;6.53;4.15;;;;;;;19.48;88.14;100664.09;5030881;28;20041;-84
2021/07/12 06:24:48;;;;;;;5.63;3.13;;;;;;;19.51;88.03;100667.44;5028673;28;20041;-85
2021/07/12 06:27:16;;;;;;;3.22;3.03;;;;;;;19.53;88.16;100662.09;5032160;28;20051;-84
2021/07/12 06:29:43;;;;;;;5.00;3.85;;;;;;;19.52;88.21;100663.00;5058429;28;20049;-85
2021/07/12 06:32:10;;;;;;;3.33;3.03;;;;;;;19.50;87.90;100659.56;5047512;28;20060;-85
2021/07/12 06:34:36;;;;;;;3.22;2.92;;;;;;;19.48;88.36;100649.00;5031577;28;20127;-85
2021/07/12 06:37:03;;;;;;;2.63;2.42;;;;;;;19.51;88.14;100655.97;5029836;28;20041;-86
2021/07/12 06:39:30;;;;;;;2.72;2.53;;;;;;;19.56;87.84;100646.00;5029024;28;20152;-86
2021/07/12 06:41:56;;;;;;;3.67;3.00;;;;;;;19.60;87.65;100652.03;5031493;28;20458;-86
2021/07/12 06:44:23;;;;;;;3.13;2.83;;;;;;;19.59;87.46;100645.00;5030166;28;20052;-86
2021/07/12 06:46:52;;;;;;;2.97;2.80;;;;;;;19.61;87.42;100651.97;5031884;28;20579;-85
2021/07/12 06:49:18;;;;;;;3.95;3.50;;;;;;;19.64;86.91;100653.63;5046360;28;20060;-86
2021/07/12 06:51:45;;;;;;;3.33;2.72;;;;;;;19.68;87.06;100644.56;5029459;28;20056;-85
2021/07/12 06:54:12;;;;;;;2.65;2.40;;;;;;;19.75;86.78;100653.09;5044598;28;20593;-86
2021/07/12 06:56:38;;;;;;;3.38;2.55;;;;;;;19.86;86.50;100652.66;5030657;28;20130;-85
2021/07/12 06:59:05;;;;;;;3.45;3.15;;;;;;;19.95;85.39;100650.38;5031516;28;20049;-86
2021/07/12 07:01:31;;;;;;;3.13;2.80;;;;;;;20.05;84.63;100652.59;5045887;28;20554;-85
2021/07/12 07:03:58;;;;;;;3.22;2.85;;;;;;;20.08;84.20;100650.66;5064098;28;20780;-86
2021/07/12 07:06:25;;;;;;;2.45;2.25;;;;;;;20.15;84.19;100651.22;5048032;28;20041;-85
2021/07/12 07:08:51;;;;;;;2.53;2.42;;;;;;;20.21;83.21;100644.72;5032775;28;20045;-86
2021/07/12 07:11:18;;;;;;;6.25;2.47;;;;;;;20.29;82.83;100642.56;5044785;28;20079;-85
2021/07/12 07:13:44;;;;;;;6.63;4.68;;;;;;;20.36;82.19;100637.81;5031663;28;20397;-85
2021/07/12 07:16:11;;;;;;;1.95;1.77;;;;;;;20.43;81.07;100639.22;5063630;28;20045;-86
2021/07/12 07:18:38;;;;;;;1.90;1.80;;;;;;;20.54;80.53;100641.34;5045551;28;20063;-84
2021/07/12 07:21:04;;;;;;;2.53;1.90;;;;;;;20.69;79.68;100643.22;5049363;28;20052;-85
2021/07/12 07:23:31;;;;;;;1.83;1.73;;;;;;;20.86;79.26;100642.38;5046354;28;20045;-85
2021/07/12 07:26:01;;;;;;;2.20;2.10;;;;;;;21.10;77.94;100642.00;5045883;28;20120;-84
2021/07/12 07:28:28;;;;;;;3.05;2.85;;;;;;;21.38;76.97;100637.84;5064266;28;20049;-85
2021/07/12 07:30:57;;;;;;;1.98;1.88;;;;;;;21.84;74.64;100637.13;5028056;28;20067;-85
2021/07/12 07:33:26;;;;;;;1.63;1.52;;;;;;;22.35;72.74;100643.06;5026124;28;21496;-85
2021/07/12 07:35:53;;;;;;;3.28;2.97;;;;;;;22.91;70.57;100635.31;5046310;28;20048;-85
2021/07/12 07:38:20;;;;;;;1.60;1.50;;;;;;;23.49;68.38;100631.81;5046714;28;20439;-85
2021/07/12 07:40:47;;;;;;;1.52;1.42;;;;;;;24.08;65.83;100632.44;5029956;28;20164;-84
2021/07/12 07:43:13;;;;;;;1.38;1.27;;;;;;;24.57;64.59;100630.09;5031842;28;20146;-84
2021/07/12 07:45:40;;;;;;;1.35;1.35;;;;;;;25.09;60.15;100628.34;5028682;28;20049;-85
2021/07/12 07:48:07;;;;;;;1.75;1.65;;;;;;;25.67;60.29;100634.06;5030984;28;20045;-84
2021/07/12 07:50:37;;;;;;;1.20;1.15;;;;;;;26.14;59.00;100641.38;5031487;28;20055;-83
2021/07/12 07:53:05;;;;;;;1.63;1.55;;;;;;;26.53;56.75;100640.22;5075931;28;20064;-84
2021/07/12 07:55:32;;;;;;;2.22;1.55;;;;;;;26.91;55.34;100632.88;5044533;28;20392;-86
2021/07/12 07:57:59;;;;;;;1.80;1.70;;;;;;;27.20;54.18;100643.16;5055143;28;20107;-84
2021/07/12 08:00:26;;;;;;;1.52;1.52;;;;;;;27.66;53.44;100633.22;5027441;28;20053;-85
2021/07/12 08:02:54;;;;;;;1.50;1.50;;;;;;;27.87;51.04;100644.94;5005963;28;20294;-84
2021/07/12 08:05:21;;;;;;;1.70;1.67;;;;;;;28.13;50.57;100639.22;5050607;28;20077;-84
2021/07/12 08:07:49;;;;;;;1.90;1.80;;;;;;;28.50;49.64;100638.81;5047969;28;20530;-84
2021/07/12 08:10:19;;;;;;;2.78;1.80;;;;;;;28.64;48.65;100639.47;5050582;28;20037;-84
2021/07/12 08:12:48;;;;;;;1.40;1.40;;;;;;;28.60;48.75;100630.81;5018069;28;20047;-85
2021/07/12 08:15:16;;;;;;;1.80;1.70;;;;;;;28.50;49.04;100629.88;5033359;28;20061;-84
2021/07/12 08:17:43;;;;;;;1.63;1.58;;;;;;;28.57;48.67;100630.22;5037017;28;20148;-84
2021/07/12 08:20:16;;;;;;;3.80;1.83;;;;;;;28.83;47.97;100630.72;5050839;28;20044;-85
2021/07/12 08:22:44;;;;;;;1.42;1.35;;;;;;;29.03;46.77;100626.25;5055347;28;20517;-84
2021/07/12 08:25:12;;;;;;;1.73;1.70;;;;;;;29.09;46.31;100631.13;5035841;28;20049;-84
2021/07/12 08:27:39;;;;;;;2.47;2.28;;;;;;;29.25;46.00;100633.31;5051014;28;20091;-84
2021/07/12 08:30:08;;;;;;;1.50;1.42;;;;;;;29.31;45.96;100634.66;5036936;28;20426;-84
2021/07/12 08:32:35;;;;;;;2.53;2.10;;;;;;;29.30;45.54;100638.34;5037338;28;20507;-84
2021/07/12 08:35:03;;;;;;;2.55;2.40;;;;;;;29.27;44.97;100639.47;5044855;28;20067;-86
2021/07/12 08:37:30;;;;;;;2.83;2.63;;;;;;;29.05;45.66;100641.31;5053811;28;20144;-84
2021/07/12 08:39:57;;;;;;;2.58;2.40;;;;;;;28.94;45.75;100638.69;5022458;28;20048;-84
2021/07/12 08:42:24;;;;;;;2.65;2.55;;;;;;;28.92;45.96;100631.75;5034198;28;20040;-85
2021/07/12 08:44:51;;;;;;;1.92;1.83;;;;;;;29.08;45.22;100636.66;5034719;28;20053;-85
2021/07/12 08:47:20;;;;;;;1.70;1.60;;;;;;;29.21;45.59;100626.47;5038754;28;20049;-85
2021/07/12 08:49:47;;;;;;;2.25;2.15;;;;;;;29.48;44.73;100622.34;5060145;28;20066;-85
2021/07/12 08:52:14;;;;;;;1.75;1.67;;;;;;;29.64;43.95;100619.13;5038892;28;20055;-85
2021/07/12 08:54:41;;;;;;;1.83;1.73;;;;;;;29.84;43.92;100628.97;5039683;28;20045;-85
2021/07/12 08:57:09;;;;;;;2.70;2.47;;;;;;;30.10;42.87;100622.19;5038826;28;20060;-84
2021/07/12 08:59:40;;;;;;;2.53;1.90;;;;;;;30.16;42.85;100616.22;5052907;28;20044;-86
2021/07/12 09:02:13;;;;;;;4.78;2.38;;;;;;;30.19;42.55;100619.50;5051145;28;20048;-87
2021/07/12 09:04:46;;;;;;;2.20;2.10;;;;;;;29.80;42.82;100623.97;5041238;28;20059;-85
2021/07/12 09:07:25;;;;;;;3.28;2.97;;;;;;;29.98;43.04;100611.50;5041999;28;20063;-84
2021/07/12 09:10:11;;;;;;;3.38;2.90;;;;;;;30.26;41.70;100608.09;5059534;28;20040;-85
2021/07/12 09:12:52;;;;;;;2.30;2.20;;;;;;;30.66;41.80;100607.94;5039857;28;20045;-85
2021/07/12 09:15:24;;;;;;;2.38;2.33;;;;;;;31.53;40.24;100586.09;5052433;28;20041;-86
2021/07/12 09:17:54;;;;;;;2.78;2.58;;;;;;;32.35;38.30;100588.75;5051842;28;20580;-85
2021/07/12 09:20:30;;;;;;;2.47;2.33;;;;;;;33.06;36.62;100586.81;5056777;28;20044;-85
2021/07/12 09:22:58;;;;;;;4.55;3.00;;;;;;;33.34;36.95;100591.19;5039098;28;20041;-84
2021/07/12 09:25:32;;;;;;;11.73;4.22;;;;;;;33.60;35.87;100588.41;5060321;28;20431;-87
2021/07/12 09:27:59;;;;;;;2.72;2.60;;;;;;;33.90;35.44;100586.13;5039654;28;20087;-85
2021/07/12 09:30:25;;;;;;;2.40;2.30;;;;;;;33.63;35.82;100590.78;5038857;28;20434;-85
2021/07/12 09:32:58;;;;;;;3.00;2.80;;;;;;;32.65;36.60;100576.59;5037482;28;20110;-85
2021/07/12 09:35:27;;;;;;;3.38;3.17;;;;;;;31.62;38.89;100584.38;5056336;28;20041;-85
2021/07/12 09:38:00;;;;;;;2.95;2.70;;;;;;;30.75;40.87;100575.63;5057415;28;20557;-86
2021/07/12 09:40:29;;;;;;;5.55;2.83;;;;;;;29.95;42.41;100589.38;5037497;28;20083;-86
2021/07/12 09:42:56;;;;;;;2.95;2.80;;;;;;;29.22;43.91;100587.75;5056562;28;20460;-84
2021/07/12 09:45:28;;;;;;;2.95;2.80;;;;;;;29.05;44.38;100589.25;5036530;28;20047;-84
2021/07/12 09:48:00;;;;;;;3.40;3.15;;;;;;;29.10;44.59;100578.94;5042738;28;20048;-85
2021/07/12 09:50:27;;;;;;;3.08;2.75;;;;;;;28.84;44.80;100579.38;5038667;28;20578;-86
2021/07/12 09:53:04;;;;;;;3.58;3.22;;;;;;;28.65;45.10;100574.72;5037968;28;20071;-86
2021/07/12 09:55:35;;;;;;;3.08;2.53;;;;;;;29.08;44.54;100572.81;5041645;28;20114;-87
2021/07/12 09:58:20;;;;;;;2.88;2.78;;;;;;;29.64;42.82;100576.81;5058969;28;21219;-85
2021/07/12 10:00:49;;;;;;;2.15;2.15;;;;;;;31.14;40.16;100568.22;5039837;28;20049;-86
2021/07/12 10:03:19;;;;;;;4.60;4.32;;;;;;;31.84;38.47;100564.97;5051636;28;20044;-86
2021/07/12 10:05:48;;;;;;;3.30;3.10;;;;;;;31.87;38.82;100565.66;5041026;28;20045;-86
2021/07/12 10:08:15;;;;;;;2.67;2.33;;;;;;;31.67;39.28;100550.41;5053595;28;20044;-85
2021/07/12 10:10:42;;;;;;;3.67;3.03;;;;;;;31.25;39.68;100555.50;5056215;28;20051;-85
2021/07/12 10:13:09;;;;;;;3.22;3.00;;;;;;;31.01;40.13;100563.13;5067236;28;20053;-86
2021/07/12 10:15:36;;;;;;;3.58;2.92;;;;;;;31.15;40.11;100555.59;5038947;28;20044;-85
2021/07/12 10:18:04;;;;;;;3.05;2.95;;;;;;;30.96;40.31;100543.84;5036891;28;20045;-84
2021/07/12 10:20:33;;;;;;;3.20;3.00;;;;;;;31.03;40.53;100535.97;5034205;28;20041;-84
2021/07/12 10:23:02;;;;;;;2.65;2.55;;;;;;;30.93;40.23;100535.16;5053860;28;20056;-86
2021/07/12 10:25:31;;;;;;;3.40;3.20;;;;;;;30.69;40.63;100539.25;5038017;28;20110;-86
2021/07/12 10:28:07;;;;;;;4.32;3.30;;;;;;;30.92;40.27;100539.72;5037715;28;20045;-83
2021/07/12 10:30:44;;;;;;;2.83;2.63;;;;;;;31.68;39.01;100529.66;5033621;28;20053;-84
2021/07/12 10:33:18;;;;;;;4.15;3.85;;;;;;;32.04;38.57;100521.47;5051699;28;20124;-85
2021/07/12 10:35:57;;;;;;;4.20;2.90;;;;;;;32.13;37.47;100520.50;5037115;28;20051;-85
2021/07/12 10:38:45;;;;;;;6.45;3.35;;;;;;;32.91;36.35;100526.97;5033987;28;20047;-84
2021/07/12 10:41:26;;;;;;;2.65;2.55;;;;;;;33.54;34.57;100526.66;5053224;28;20049;-85
2021/07/12 10:43:58;;;;;;;5.35;3.30;;;;;;;33.41;34.10;100524.44;5034000;28;20305;-86
2021/07/12 10:46:26;;;;;;;2.67;2.63;;;;;;;32.86;35.52;100525.75;5033851;28;20052;-84
2021/07/12 10:48:54;;;;;;;2.05;1.95;;;;;;;33.25;34.65;100525.22;5069313;28;20045;-85
2021/07/12 10:51:22;;;;;;;2.58;2.40;;;;;;;34.11;32.91;100513.09;5037807;28;20466;-84
2021/07/12 10:54:10;;;;;;;2.97;2.88;;;;;;;34.20;32.57;100513.94;5036143;28;20057;-84
2021/07/12 10:56:54;;;;;;;2.92;2.72;;;;;;;34.68;32.11;100519.47;5030797;28;20130;-84
2021/07/12 10:59:39;;;;;;;2.38;2.28;;;;;;;35.10;30.84;100512.84;5030339;28;20053;-85
2021/07/12 11:02:17;;;;;;;4.35;3.00;;;;;;;36.12;29.59;100515.56;5034664;28;20045;-83
2021/07/12 11:04:51;;;;;;;4.10;2.15;;;;;;;36.42;29.23;100514.56;5047476;28;20047;-83
2021/07/12 11:07:20;;;;;;;4.43;2.95;;;;;;;36.08;29.53;100512.34;5033426;28;20628;-84
2021/07/12 11:09:51;;;;;;;2.72;2.17;;;;;;;36.36;29.65;100515.34;5030926;28;20052;-85
2021/07/12 11:12:36;;;;;;;1.98;1.98;;;;;;;36.24;28.83;100501.31;5046328;28;20049;-84
2021/07/12 11:15:22;;;;;;;2.40;2.30;;;;;;;36.25;29.51;100504.88;5030950;28;20060;-85
2021/07/12 11:18:04;;;;;;;2.40;2.30;;;;;;;36.01;29.31;100505.94;5046970;28;20052;-84
2021/07/12 11:20:49;;;;;;;3.10;2.90;;;;;;;36.13;29.37;100492.72;5060546;28;20096;-84
2021/07/12 11:23:48;;;;;;;2.28;2.08;;;;;;;36.69;28.15;100493.13;5065285;28;20452;-84
2021/07/12 11:26:23;;;;;;;2.47;2.40;;;;;;;37.30;26.58;100500.19;5030383;28;20462;-85
2021/07/12 11:28:56;;;;;;;3.90;2.20;;;;;;;37.61;27.66;100492.75;5047943;28;20143;-84
2021/07/12 11:31:43;;;;;;;2.63;2.08;;;;;;;36.67;27.99;100492.47;5029347;28;20049;-85
2021/07/12 11:34:23;;;;;;;2.80;2.03;;;;;;;35.47;30.04;100472.34;5080891;28;20037;-85
2021/07/12 11:37:04;;;;;;;3.05;2.20;;;;;;;35.71;29.70;100475.88;5045143;28;20034;-85
2021/07/12 11:39:34;;;;;;;2.47;2.38;;;;;;;35.95;29.84;100477.56;5061615;28;20048;-85
2021/07/12 11:42:42;;;;;;;2.03;2.03;;;;;;;35.66;29.59;100472.84;5031694;28;20048;-86